Flight Track Log - Related Links

Times and Time Zones

All times are in EDT time to prevent confusion due to time zone crossing. See the RAX289 flight status page for this flight to view local times or setup timezone preferences in your user account.

Time Position Orientation Groundspeed Altitude Reporting Facility
EDT Latitude Longitude Course Direction KTS MPH feet Rate Location/Type
Fri 02:52:15 PM 39.8833 -104.5667 72° East 201 231 6,600  Level Denver TRACON
Fri 02:53:15 PM 39.9000 -104.5000 72° East 220 253 8,800 1,900 Climbing Denver TRACON
Fri 02:54:15 PM 39.9000 -104.4000 90° East 241 277 10,400 1,241 Climbing Denver TRACON
Fri 02:55:11 PM 39.9094 -104.3158 82° East 290 334 11,200 966 Climbing Denver Center
Fri 02:56:13 PM 39.9317 -104.1831 78° East 348 400 12,300 1,645 Climbing Denver Center
Fri 02:57:15 PM 39.9561 -104.0622 75° East 344 396 14,600 1,887 Climbing Denver Center
Fri 02:58:17 PM 39.9906 -103.9306 71° East 364 419 16,200 1,597 Climbing Denver Center
Fri 02:59:19 PM 40.0119 -103.7964 78° East 376 433 17,900 1,452 Climbing Denver Center
Fri 03:00:21 PM 40.0300 -103.6692 79° East 376 433 19,200 1,306 Climbing Denver Center
Fri 03:01:23 PM 40.0472 -103.5267 81° East 396 456 20,600 1,248 Climbing Denver Center
Fri 03:02:26 PM 40.0856 -103.3564 74° East 410 472 21,800 1,104 Climbing Denver Center
Fri 03:03:28 PM 40.1078 -103.2072 79° East 418 481 22,900 1,016 Climbing Denver Center
Fri 03:04:30 PM 40.1328 -103.0578 78° East 423 487 23,900 823 Climbing Denver Center
Fri 03:05:32 PM 40.1583 -102.9056 78° East 428 493 24,600 726 Climbing Denver Center
Fri 03:06:34 PM 40.1792 -102.7500 80° East 434 499 25,400 823 Climbing Denver Center
Fri 03:07:36 PM 40.2114 -102.5742 76° East 433 498 26,300 823 Climbing Denver Center
Fri 03:08:38 PM 40.2339 -102.4256 79° East 435 501 27,100 823 Climbing Denver Center
Fri 03:09:40 PM 40.2608 -102.2514 78° East 438 504 28,000 677 Climbing Denver Center
Fri 03:10:42 PM 40.2781 -102.1008 81° East 437 503 28,500 581 Climbing Denver Center
Fri 03:11:44 PM 40.3019 -101.9258 80° East 438 504 29,200 532 Climbing Denver Center
Fri 03:12:46 PM 40.3325 -101.7769 75° East 442 509 29,600 532 Climbing Denver Center
Fri 03:13:48 PM 40.3519 -101.5989 82° East 444 511 30,300 581 Climbing Denver Center
Fri 03:14:50 PM 40.3761 -101.4483 78° East 442 509 30,800 528 Climbing Denver Center
Fri 03:15:53 PM 40.4022 -101.2742 79° East 438 504 31,400 528 Climbing Denver Center
Fri 03:16:55 PM 40.4242 -101.1231 79° East 442 509 31,900 435 Climbing Denver Center
Fri 03:17:57 PM 40.4511 -100.9475 79° East 443 510 32,300 435 Climbing Denver Center
Fri 03:18:59 PM 40.4744 -100.7964 78° East 445 512 32,800 339 Climbing Denver Center
Fri 03:20:01 PM 40.5169 -100.6269 72° East 442 509 33,000 97 Climbing Denver Center
Fri 03:21:03 PM 40.5508 -100.4803 73° East 444 511 33,000  Level Denver Center
Fri 03:22:05 PM 40.5814 -100.3042 77° East 445 512 33,000  Level Denver Center
Fri 03:23:07 PM 40.6172 -100.1567 72° East 445 512 33,000  Level Denver Center
Fri 03:24:09 PM 40.6558 -99.9856 73° East 440 506 33,000  Level Denver Center
Fri 03:25:11 PM 40.6842 -99.8358 76° East 446 513 33,000  Level Denver Center
Fri 03:26:13 PM 40.6997 -99.6728 83° East 449 517 33,000  Level Denver Center
Fri 03:27:15 PM 40.7242 -99.4769 81° East 452 520 33,000  Level Denver Center
Fri 03:28:18 PM 40.7522 -99.3192 77° East 445 512 33,000  Level Denver Center
Fri 03:29:20 PM 40.7700 -99.1592 82° East 443 510 33,000  Level Denver Center
Fri 03:30:22 PM 40.7911 -98.9833 81° East 447 514 33,000  Level Denver Center
Fri 03:31:24 PM 40.8153 -98.8297 78° East 447 514 33,000  Level Denver Center
Fri 03:32:26 PM 40.8383 -98.6469 80° East 446 513 33,000  Level Denver Center
Fri 03:33:28 PM 40.8628 -98.4881 78° East 446 513 33,000  Level Denver Center
Fri 03:34:41 PM 40.8814 -98.2944 83° East 446 513 33,000  Level Minneapolis Center
Fri 03:35:43 PM 40.9036 -98.1339 80° East 446 513 33,000  Level Minneapolis Center
Fri 03:36:45 PM 40.9250 -97.9719 80° East 447 514 33,000  Level Minneapolis Center
Fri 03:37:48 PM 40.9356 -97.8069 85° East 451 519 33,000  Level Minneapolis Center
Fri 03:38:50 PM 40.9619 -97.6117 80° East 450 518 33,000 145 Level Minneapolis Center
Fri 03:39:52 PM 40.9869 -97.4492 78° East 451 519 33,300 435 Climbing Minneapolis Center
Fri 03:40:54 PM 41.0014 -97.2911 83° East 449 517 33,900 581 Climbing Minneapolis Center
Fri 03:41:56 PM 41.0325 -97.1367 75° East 437 503 34,500 532 Climbing Minneapolis Center
Fri 03:42:58 PM 41.0661 -96.9833 74° East 434 499 35,000 581 Climbing Minneapolis Center
Fri 03:44:00 PM 41.1006 -96.7981 76° East 432 497 35,700 629 Climbing Minneapolis Center
Fri 03:45:02 PM 41.1322 -96.6456 75° East 432 497 36,300 581 Climbing Minneapolis Center
Fri 03:46:04 PM 41.1575 -96.4883 78° East 435 501 36,900 339 Climbing Minneapolis Center
Fri 03:47:06 PM 41.1897 -96.3292 75° East 433 498 37,000 48 Climbing Minneapolis Center
Fri 03:48:09 PM 41.2172 -96.1719 77° East 436 502 37,000  Level Minneapolis Center
Fri 03:49:11 PM 41.2428 -96.0153 78° East 434 499 37,000  Level Minneapolis Center
Fri 03:50:13 PM 41.2750 -95.8608 74° East 434 499 37,000  Level Minneapolis Center
Fri 03:51:15 PM 41.3031 -95.6697 79° East 437 503 37,000  Level Minneapolis Center
Fri 03:52:17 PM 41.3300 -95.5333 75° East 436 502 37,000  Level Minneapolis Center
Fri 03:53:19 PM 41.3561 -95.3756 78° East 437 503 37,000  Level Minneapolis Center
Fri 03:54:21 PM 41.3856 -95.1856 78° East 437 503 37,000  Level Minneapolis Center
Fri 03:55:23 PM 41.4089 -95.0608 76° East 436 502 37,000  Level Minneapolis Center
Fri 03:56:25 PM 41.4433 -94.8731 76° East 436 502 37,000  Level Minneapolis Center
Fri 03:57:27 PM 41.4700 -94.7169 77° East 434 499 37,000  Level Minneapolis Center
Fri 03:58:30 PM 41.4972 -94.5594 77° East 436 502 37,000  Level Minneapolis Center
Fri 03:59:32 PM 41.5272 -94.4036 76° East 435 501 37,000  Level Minneapolis Center
Fri 04:00:34 PM 41.5678 -94.2167 74° East 439 505 37,000  Level Minneapolis Center
Fri 04:01:36 PM 41.5983 -94.0678 75° East 438 504 37,000  Level Minneapolis Center
Fri 04:02:38 PM 41.6208 -93.9053 79° East 444 511 37,000  Level Minneapolis Center
Fri 04:03:40 PM 41.6444 -93.7439 79° East 445 512 37,000  Level Minneapolis Center
Fri 04:04:42 PM 41.6789 -93.5519 76° East 446 513 37,000  Level Minneapolis Center
Fri 04:05:44 PM 41.7011 -93.3894 80° East 447 514 37,000  Level Minneapolis Center
Fri 04:06:46 PM 41.7236 -93.2264 79° East 448 516 37,000  Level Minneapolis Center
Fri 04:07:48 PM 41.7489 -93.0636 78° East 449 517 37,000  Level Minneapolis Center
Fri 04:08:50 PM 41.7744 -92.9033 78° East 445 512 37,000  Level Minneapolis Center
Fri 04:09:53 PM 41.7997 -92.7158 80° East 447 514 37,000  Level Minneapolis Center
Fri 04:10:55 PM 41.8233 -92.5542 79° East 448 516 37,000  Level Minneapolis Center
Fri 04:11:57 PM 41.8497 -92.3936 78° East 447 514 37,000  Level Minneapolis Center
Fri 04:12:59 PM 41.8750 -92.2314 78° East 449 517 37,000  Level Minneapolis Center
Fri 04:14:01 PM 41.9061 -92.0367 78° East 450 518 37,000  Level Minneapolis Center
Fri 04:15:03 PM 41.9278 -91.8717 80° East 452 520 37,000  Level Minneapolis Center
Fri 04:16:05 PM 41.9514 -91.7075 79° East 454 522 37,000  Level Minneapolis Center
Fri 04:17:07 PM 41.9750 -91.5414 79° East 456 525 37,000  Level Minneapolis Center
Fri 04:18:09 PM 41.9964 -91.3742 80° East 459 528 37,000  Level Minneapolis Center
Fri 04:19:26 PM 42.0297 -91.1408 79° East 460 529 37,000 43 Level Chicago Center
Fri 04:20:28 PM 42.0500 -90.9728 81° East 460 529 37,100 290 Climbing Chicago Center
Fri 04:21:30 PM 42.0783 -90.7756 79° East 455 524 37,600 387 Climbing Chicago Center
Fri 04:22:32 PM 42.1042 -90.6131 78° East 452 520 37,900 290 Climbing Chicago Center
Fri 04:23:34 PM 42.1269 -90.4464 80° East 457 526 38,200 290 Climbing Chicago Center
Fri 04:24:36 PM 42.1456 -90.2819 81° East 453 521 38,500 242 Climbing Chicago Center
Fri 04:25:38 PM 42.1675 -90.1178 80° East 452 520 38,700 242 Climbing Chicago Center
Fri 04:26:40 PM 42.1914 -89.9181 81° East 456 525 39,000 144 Climbing Chicago Center
Fri 04:27:43 PM 42.2108 -89.7483 81° East 455 524 39,000  Level Chicago Center
Fri 04:28:45 PM 42.2278 -89.5792 82° East 456 525 39,000  Level Chicago Center
Fri 04:29:47 PM 42.2436 -89.4089 83° East 457 526 39,000  Level Chicago Center
Fri 04:30:49 PM 42.2625 -89.2394 81° East 460 529 39,000  Level Chicago Center
Fri 04:31:51 PM 42.2864 -89.0411 81° East 459 528 39,000  Level Chicago Center
Fri 04:32:53 PM 42.3061 -88.8708 81° East 461 531 39,000  Level Chicago Center
Fri 04:33:55 PM 42.3236 -88.7175 81° East 461 531 39,000  Level Chicago Center
Fri 04:34:57 PM 42.3406 -88.5278 83° East 461 531 39,000  Level Chicago Center
Fri 04:35:59 PM 42.3472 -88.3542 87° East 463 533 39,000  Level Chicago Center
Fri 04:37:01 PM 42.3544 -88.1531 87° East 461 531 39,000  Level Chicago Center
Fri 04:38:03 PM 42.3697 -87.9806 83° East 462 532 39,000  Level Chicago Center
Fri 04:39:05 PM 42.3858 -87.8075 83° East 464 534 39,000  Level Chicago Center
Fri 04:40:07 PM 42.4083 -87.6128 81° East 463 533 39,000  Level Chicago Center
Fri 04:41:10 PM 42.4175 -87.4381 86° East 466 536 39,000  Level Chicago Center
Fri 04:42:12 PM 42.4292 -87.2647 85° East 465 535 39,000  Level Chicago Center
Fri 04:43:14 PM 42.4511 -87.0944 80° East 463 533 39,000  Level Chicago Center
Fri 04:44:16 PM 42.4656 -86.9225 83° East 463 533 39,000  Level Chicago Center
Fri 04:45:18 PM 42.4811 -86.7492 83° East 464 534 39,000  Level Chicago Center
Fri 04:46:20 PM 42.5036 -86.5494 81° East 470 541 39,000  Level Chicago Center
Fri 04:47:22 PM 42.5186 -86.3764 83° East 467 537 39,000  Level Chicago Center
Fri 04:48:24 PM 42.5328 -86.2025 84° East 467 537 39,000  Level Chicago Center
Fri 04:49:26 PM 42.5478 -86.0278 83° East 471 542 39,000  Level Chicago Center
Fri 04:50:28 PM 42.5661 -85.8175 83° East 472 543 39,000  Level Chicago Center
Fri 04:51:30 PM 42.5814 -85.6428 83° East 472 543 39,000  Level Chicago Center
Fri 04:52:32 PM 42.5922 -85.4656 85° East 474 545 39,000  Level Chicago Center
Fri 04:53:34 PM 42.6042 -85.2881 85° East 475 547 39,000  Level Chicago Center
Fri 04:54:36 PM 42.6164 -85.1131 85° East 472 543 39,000  Level Chicago Center
Fri 04:55:39 PM 42.6339 -84.8997 84° East 475 547 39,000  Level Chicago Center
Fri 04:56:41 PM 42.6242 -84.7228 94° East 471 542 39,000  Level Chicago Center
Fri 04:57:43 PM 42.6178 -84.5436 93° East 475 547 39,000  Level Chicago Center
Fri 04:58:45 PM 42.6225 -84.3642 88° East 477 549 39,000  Level Chicago Center
Fri 04:59:31 PM 42.6264 -84.2039 88° East 479 551 39,000 -283 Level Cleveland Center
Fri 05:00:31 PM 42.6233 -84.0258 91° East 474 545 38,500 -1,050 Descending Cleveland Center
Fri 05:01:31 PM 42.6225 -83.8425 90° East 474 545 36,900 -1,650 Descending Cleveland Center
Fri 05:02:31 PM 42.6203 -83.6928 91° East 479 551 35,200 -1,700 Descending Cleveland Center
Fri 05:03:31 PM 42.6172 -83.4922 91° East 479 551 33,500 -1,100 Descending Cleveland Center
Fri 05:04:31 PM 42.6136 -83.3058 91° East 484 557 33,000 -250 Descending Cleveland Center
Fri 05:05:31 PM 42.6156 -83.1225 89° East 484 557 33,000  Level Cleveland Center
Fri 05:06:31 PM 42.6153 -82.9361 90° East 484 557 33,000  Level Cleveland Center
Fri 05:07:31 PM 42.6086 -82.7525 93° East 484 557 33,000  Level Cleveland Center
Fri 05:08:31 PM 42.6056 -82.5664 91° East 484 557 33,000 -350 Level Cleveland Center
Fri 05:09:31 PM 42.6025 -82.3856 91° East 484 557 32,300 -1,050 Descending Cleveland Center
Fri 05:10:31 PM 42.5947 -82.2050 93° East 484 557 30,900 -1,550 Descending Cleveland Center
Fri 05:11:31 PM 42.5889 -82.0158 92° East 479 551 29,200 -1,700 Descending Cleveland Center
Fri 05:12:31 PM 42.5847 -81.8267 92° East 485 558 27,500 -1,650 Descending Cleveland Center
Fri 05:13:31 PM 42.5844 -81.6406 90° East 497 572 25,900 -1,250 Descending Cleveland Center
Fri 05:14:31 PM 42.5778 -81.4375 92° East 497 572 25,000 -450 Descending Cleveland Center
Fri 05:15:31 PM 42.5667 -81.2569 95° East 497 572 25,000  Level Cleveland Center
Fri 05:16:31 PM 42.5614 -81.0736 92° East 491 565 25,000  Level Cleveland Center
Fri 05:17:31 PM 42.5597 -80.8906 91° East 486 559 25,000  Level Cleveland Center
Fri 05:18:31 PM 42.5519 -80.7072 93° East 486 559 25,000  Level Cleveland Center
Fri 05:19:31 PM 42.5519 -80.5297 90° East 481 554 25,000  Level Cleveland Center
Fri 05:20:31 PM 42.5892 -80.3519 74° East 468 539 25,000 -350 Level Cleveland Center
Fri 05:21:31 PM 42.6303 -80.1769 72° East 478 550 24,300 -900 Descending Cleveland Center
Fri 05:22:31 PM 42.6589 -80.0158 76° East 483 556 23,200 -1,350 Descending Cleveland Center
Fri 05:23:31 PM 42.7078 -79.8175 71° East 495 570 21,600 -1,550 Descending Cleveland Center
Fri 05:24:31 PM 42.7439 -79.6447 74° East 488 562 20,100 -1,700 Descending Cleveland Center
Fri 05:25:31 PM 42.7717 -79.4744 77° East 475 547 18,200 -2,150 Descending Cleveland Center
Fri 05:26:31 PM 42.7992 -79.3156 77° East 450 518 15,800 -2,450 Descending Cleveland Center
Fri 05:27:31 PM 42.8308 -79.1733 73° East 417 480 13,300 -3,000 Descending Cleveland Center
Fri 05:28:31 PM 42.8647 -79.0450 70° East 378 435 9,800 -2,950 Descending Cleveland Center
Fri 05:29:31 PM 42.9136 -78.9589 52° Northeast 318 366 7,400 -2,450 Descending Cleveland Center
Fri 05:30:31 PM 42.9392 -78.8617 70° East 279 321 4,900 -2,450 Descending Cleveland Center
Fri 05:31:31 PM 42.9547 -78.7792 76° East 262 302 2,500 -1,400 Descending Cleveland Center
Fri 05:32:31 PM 42.9614 -78.6794 85° East 241 277 2,100 4,250 Descending Cleveland Center
Fri 05:33:31 PM 42.9703 -78.5858 83° East 241 277 11,000 8,900 Climbing Cleveland Center
Fri 05:35:00 PM 42.9333 -78.7167 251° West  Level FlightAware Approximate
Fri 05:42:00 PM 42.9404 -78.7306 251° West  Level Estimated

Login

Don't have an account? Register now (free) for customized features, flight alerts, and more!